Time;durP1;ratioP1;P1;durP2;ratioP2;P2;SDS_P1;SDS_P2;PMS_P1;PMS_P2;Temp;Humidity;BMP_temperature;BMP_pressure;BME280_temperature;BME280_humidity;BME280_pressure;Samples;Min_cycle;Max_cycle;Signal;HPM_P1;HPM_P2
2021/07/20 00:00:00;;;;;;;19.50;16.37;;;25.60;53.00;;;;;;4954468;29;20764;-47
2021/07/20 00:02:45;;;;;;;18.00;15.83;;;25.50;53.10;;;;;;4953474;29;20243;-48
2021/07/20 00:05:13;;;;;;;18.10;16.20;;;25.50;53.20;;;;;;4951740;29;20652;-48
2021/07/20 00:07:40;;;;;;;20.57;17.80;;;25.40;53.40;;;;;;4954168;29;20471;-47
2021/07/20 00:10:15;;;;;;;18.83;16.93;;;25.40;53.30;;;;;;4953183;28;20431;-47
2021/07/20 00:12:41;;;;;;;17.60;15.70;;;25.40;53.20;;;;;;4954190;29;20438;-46
2021/07/20 00:15:09;;;;;;;18.37;16.47;;;25.30;52.90;;;;;;4953180;29;20570;-49
2021/07/20 00:17:35;;;;;;;25.57;15.80;;;25.30;52.80;;;;;;4953501;28;20327;-46
2021/07/20 00:20:03;;;;;;;18.17;16.27;;;25.30;52.80;;;;;;4949893;28;20535;-48
2021/07/20 00:22:28;;;;;;;20.33;16.47;;;25.20;52.70;;;;;;4934041;29;20189;-46
2021/07/20 00:24:54;;;;;;;18.00;16.10;;;25.20;52.80;;;;;;4934207;29;20439;-47
2021/07/20 00:27:20;;;;;;;19.80;15.83;;;25.20;52.90;;;;;;4934044;29;20238;-47
2021/07/20 00:29:45;;;;;;;20.37;16.83;;;25.20;53.10;;;;;;4934714;29;20231;-46
2021/07/20 00:32:11;;;;;;;22.33;16.63;;;25.10;53.40;;;;;;4932566;29;20561;-47
2021/07/20 00:34:38;;;;;;;19.57;17.47;;;25.10;53.70;;;;;;4934251;29;20235;-47
2021/07/20 00:37:05;;;;;;;21.53;16.70;;;25.10;53.80;;;;;;4933518;29;20618;-47
2021/07/20 00:39:31;;;;;;;17.57;15.60;;;25.10;53.80;;;;;;4934409;29;20437;-46
2021/07/20 00:41:56;;;;;;;22.63;17.67;;;25.00;53.70;;;;;;4934085;29;20432;-47
2021/07/20 00:44:22;;;;;;;19.20;16.07;;;25.00;53.70;;;;;;4934637;29;20205;-47
2021/07/20 00:46:48;;;;;;;21.53;17.43;;;25.00;53.70;;;;;;4937878;29;20314;-46
2021/07/20 00:49:13;;;;;;;19.73;16.90;;;24.90;53.70;;;;;;4953525;28;20204;-47
2021/07/20 00:51:39;;;;;;;18.13;16.23;;;24.90;53.70;;;;;;4953095;29;20200;-47
2021/07/20 00:54:05;;;;;;;20.20;16.53;;;24.80;53.80;;;;;;4953473;28;20220;-47
2021/07/20 00:56:32;;;;;;;21.50;16.77;;;24.80;53.90;;;;;;4952245;29;20203;-53
2021/07/20 00:58:58;;;;;;;20.00;17.23;;;24.70;53.90;;;;;;4952047;28;20196;-47
2021/07/20 01:01:24;;;;;;;19.53;17.20;;;24.70;53.90;;;;;;4952923;29;20426;-46
2021/07/20 01:03:50;;;;;;;19.83;16.07;;;24.70;53.90;;;;;;4953479;29;20204;-46
2021/07/20 01:06:20;;;;;;;18.00;16.10;;;24.70;53.90;;;;;;4952306;28;20865;-46
2021/07/20 01:08:47;;;;;;;19.87;15.60;;;24.60;53.90;;;;;;4953394;28;20833;-48
2021/07/20 01:11:14;;;;;;;17.47;15.47;;;24.50;54.00;;;;;;4953353;28;20773;-49
2021/07/20 01:13:40;;;;;;;17.63;15.70;;;24.50;54.00;;;;;;4953343;29;20507;-46
2021/07/20 01:16:07;;;;;;;17.13;15.10;;;24.40;54.00;;;;;;4952116;29;20527;-46
2021/07/20 01:18:34;;;;;;;17.60;15.80;;;24.40;54.10;;;;;;4953182;29;20238;-46
2021/07/20 01:21:00;;;;;;;18.73;15.23;;;24.40;54.00;;;;;;4941937;28;20491;-47
2021/07/20 01:23:36;;;;;;;18.77;14.63;;;24.30;53.90;;;;;;4936507;29;20432;-50
2021/07/20 01:26:02;;;;;;;19.03;15.70;;;24.30;53.80;;;;;;4937117;29;20565;-47
2021/07/20 01:28:29;;;;;;;17.30;14.93;;;24.30;53.80;;;;;;4937851;29;20424;-46
2021/07/20 01:31:01;;;;;;;16.63;14.00;;;24.20;54.00;;;;;;4937273;29;20216;-49
2021/07/20 01:33:30;;;;;;;23.27;16.67;;;24.10;54.00;;;;;;4937736;29;20436;-46
2021/07/20 01:35:58;;;;;;;14.90;13.30;;;24.10;54.00;;;;;;4936353;29;21063;-47
2021/07/20 01:38:25;;;;;;;17.00;14.77;;;24.10;54.00;;;;;;4937364;29;20447;-49
2021/07/20 01:40:55;;;;;;;18.87;15.67;;;24.10;54.10;;;;;;4936912;29;20463;-47
2021/07/20 01:43:22;;;;;;;20.53;14.47;;;24.10;54.10;;;;;;4937529;29;20830;-46
2021/07/20 01:45:49;;;;;;;18.30;14.73;;;24.00;54.00;;;;;;4936433;29;20515;-46
2021/07/20 01:48:16;;;;;;;19.10;15.13;;;24.00;54.20;;;;;;4953356;29;20499;-47
2021/07/20 01:50:43;;;;;;;17.40;13.50;;;23.90;54.20;;;;;;4954181;29;20771;-47
2021/07/20 01:53:09;;;;;;;17.20;13.73;;;23.90;54.20;;;;;;4956789;28;20525;-48
2021/07/20 01:55:35;;;;;;;16.17;14.10;;;23.80;54.20;;;;;;4953773;28;20541;-49
2021/07/20 01:58:01;;;;;;;16.57;14.40;;;23.80;54.30;;;;;;4956487;29;20435;-46
2021/07/20 02:00:27;;;;;;;16.13;13.90;;;23.80;54.30;;;;;;4955355;28;20603;-47
2021/07/20 02:08:29;;;;;;;17.07;14.70;;;23.60;54.60;;;;;;4956331;29;20486;-47
2021/07/20 02:11:00;;;;;;;20.57;14.93;;;23.50;54.70;;;;;;4955707;28;20815;-47
2021/07/20 02:13:28;;;;;;;19.47;13.77;;;23.40;54.70;;;;;;4956201;28;20412;-50
2021/07/20 02:15:54;;;;;;;16.47;14.60;;;23.40;54.80;;;;;;4955109;28;20482;-49
2021/07/20 02:18:25;;;;;;;18.00;14.67;;;23.30;54.90;;;;;;4954370;29;20471;-47
2021/07/20 02:20:52;;;;;;;19.30;14.83;;;23.30;54.90;;;;;;4959615;28;20439;-47
2021/07/20 02:23:19;;;;;;;17.13;14.13;;;23.30;55.00;;;;;;4936778;29;20428;-48
2021/07/20 02:25:46;;;;;;;16.23;14.63;;;23.20;55.00;;;;;;4935849;29;20443;-48
2021/07/20 02:28:13;;;;;;;18.07;14.03;;;23.20;55.10;;;;;;4936779;29;20927;-47
2021/07/20 02:30:39;;;;;;;18.20;15.00;;;23.10;55.20;;;;;;4936011;29;20487;-47
2021/07/20 02:33:06;;;;;;;16.20;13.57;;;23.10;55.30;;;;;;4935624;29;20864;-46
2021/07/20 02:35:32;;;;;;;16.63;13.70;;;23.10;55.40;;;;;;4935730;29;20935;-47
2021/07/20 02:37:59;;;;;;;16.37;14.43;;;23.00;55.50;;;;;;4936430;29;20519;-46
2021/07/20 02:40:25;;;;;;;16.87;14.83;;;23.00;55.60;;;;;;4935945;29;20557;-47
2021/07/20 02:42:53;;;;;;;18.27;13.53;;;23.00;55.90;;;;;;4934903;29;20508;-46
2021/07/20 02:45:20;;;;;;;16.93;13.90;;;22.50;57.50;;;;;;4935322;29;20436;-46
2021/07/20 02:47:47;;;;;;;16.80;14.57;;;22.50;57.60;;;;;;4948116;29;20432;-47
2021/07/20 02:50:15;;;;;;;20.67;14.80;;;22.60;57.40;;;;;;4955017;29;20482;-47
2021/07/20 02:52:45;;;;;;;19.10;15.47;;;22.70;57.90;;;;;;4955623;29;20462;-47
2021/07/20 02:55:13;;;;;;;21.10;15.73;;;22.80;57.20;;;;;;4954392;29;20487;-48
2021/07/20 02:57:41;;;;;;;17.57;13.90;;;22.80;57.00;;;;;;4955498;28;20837;-48
2021/07/20 03:00:09;;;;;;;17.30;15.50;;;22.80;57.00;;;;;;4955433;28;20502;-46
2021/07/20 03:02:42;;;;;;;21.50;15.03;;;22.80;57.10;;;;;;4955009;29;20505;-47
2021/07/20 03:05:09;;;;;;;15.47;13.50;;;22.80;57.20;;;;;;4954420;28;20464;-48
2021/07/20 03:07:36;;;;;;;20.97;14.30;;;22.70;57.10;;;;;;4954970;28;20447;-46
2021/07/20 03:10:04;;;;;;;18.03;15.47;;;22.70;57.10;;;;;;4953296;29;20427;-47
2021/07/20 03:12:31;;;;;;;17.40;14.13;;;22.70;56.90;;;;;;4954518;28;20479;-48
2021/07/20 03:14:58;;;;;;;16.33;14.27;;;22.70;56.70;;;;;;4954074;29;20479;-47
2021/07/20 03:17:26;;;;;;;16.00;13.70;;;22.60;56.60;;;;;;4954165;29;20912;-46
2021/07/20 03:19:53;;;;;;;16.47;13.77;;;22.60;56.40;;;;;;4952234;28;20434;-48
2021/07/20 03:22:25;;;;;;;17.17;14.07;;;22.60;56.40;;;;;;4935094;29;20464;-47
2021/07/20 03:24:52;;;;;;;15.73;13.73;;;22.60;56.40;;;;;;4935163;29;20424;-46
2021/07/20 03:27:20;;;;;;;18.73;14.40;;;22.50;56.40;;;;;;4935092;29;20432;-47
2021/07/20 03:29:46;;;;;;;18.80;16.00;;;22.50;56.50;;;;;;4935605;29;20944;-48
2021/07/20 03:32:13;;;;;;;16.40;14.50;;;22.50;56.40;;;;;;4935517;29;20429;-46
2021/07/20 03:34:41;;;;;;;17.23;14.73;;;22.50;56.50;;;;;;4934719;29;20484;-49
2021/07/20 03:37:07;;;;;;;20.63;18.40;;;22.40;56.50;;;;;;4933307;29;20921;-46
2021/07/20 03:39:35;;;;;;;19.13;15.33;;;22.40;56.50;;;;;;4935341;29;20495;-48
2021/07/20 03:42:02;;;;;;;16.87;14.60;;;22.40;56.60;;;;;;4934783;29;20476;-47
2021/07/20 03:44:29;;;;;;;19.37;13.57;;;22.40;56.60;;;;;;4934761;29;20436;-46
2021/07/20 03:46:56;;;;;;;16.97;14.10;;;22.40;56.70;;;;;;4939757;29;20534;-46
2021/07/20 03:49:25;;;;;;;15.80;14.20;;;22.40;56.70;;;;;;4954526;29;20439;-48
2021/07/20 03:51:51;;;;;;;16.70;14.40;;;22.40;56.70;;;;;;4953877;29;20439;-47
2021/07/20 03:54:18;;;;;;;19.13;14.60;;;22.30;56.60;;;;;;4954004;29;20475;-46
2021/07/20 03:56:44;;;;;;;15.67;13.50;;;22.30;56.70;;;;;;4953480;28;20467;-47
2021/07/20 03:59:12;;;;;;;15.87;13.97;;;22.30;56.70;;;;;;4954329;28;20514;-46
2021/07/20 04:01:40;;;;;;;18.53;14.80;;;22.20;56.60;;;;;;4953401;28;20428;-47
2021/07/20 04:04:08;;;;;;;16.17;13.57;;;22.20;56.70;;;;;;4952366;29;20440;-46
2021/07/20 04:06:36;;;;;;;17.30;13.63;;;22.20;56.90;;;;;;4953128;29;20463;-46
2021/07/20 04:09:02;;;;;;;16.50;14.80;;;22.20;57.00;;;;;;4953868;28;20427;-47
2021/07/20 04:11:28;;;;;;;19.47;14.77;;;22.10;57.00;;;;;;4953755;29;20518;-46
2021/07/20 04:13:54;;;;;;;16.60;14.20;;;22.10;57.10;;;;;;4936859;29;20866;-47
2021/07/20 04:16:25;;;;;;;17.67;13.83;;;22.20;57.20;;;;;;4953160;28;20539;-49
2021/07/20 04:18:51;;;;;;;19.90;14.13;;;22.20;57.20;;;;;;4953942;29;20495;-46
2021/07/20 04:21:17;;;;;;;15.50;13.30;;;22.20;57.10;;;;;;4939324;29;20425;-46
2021/07/20 04:23:44;;;;;;;17.97;13.30;;;22.20;57.00;;;;;;4934691;29;20428;-46
2021/07/20 04:26:12;;;;;;;18.43;12.90;;;22.20;56.90;;;;;;4933857;29;20428;-46
2021/07/20 04:28:38;;;;;;;16.73;13.80;;;22.20;57.00;;;;;;4933160;29;20768;-46
2021/07/20 04:31:06;;;;;;;16.17;12.37;;;22.20;57.00;;;;;;4935426;29;21349;-47
2021/07/20 04:33:34;;;;;;;19.00;13.17;;;22.20;57.60;;;;;;4934398;29;20468;-47
2021/07/20 04:36:01;;;;;;;15.73;12.40;;;22.20;57.00;;;;;;4933476;29;20527;-47
2021/07/20 04:38:30;;;;;;;21.17;12.80;;;22.20;57.00;;;;;;4934435;29;20933;-46
2021/07/20 04:40:57;;;;;;;16.67;14.50;;;22.20;57.00;;;;;;4933596;29;20520;-47
2021/07/20 04:43:23;;;;;;;16.37;13.93;;;22.30;57.20;;;;;;4934646;29;20439;-49
2021/07/20 04:45:52;;;;;;;17.23;13.83;;;22.30;57.30;;;;;;4933514;29;20889;-47
2021/07/20 04:48:18;;;;;;;17.60;14.17;;;22.30;57.30;;;;;;4950554;29;20412;-47
2021/07/20 04:50:44;;;;;;;16.13;14.43;;;22.30;57.30;;;;;;4953160;29;20571;-46
2021/07/20 04:53:11;;;;;;;19.90;13.87;;;22.30;57.40;;;;;;4953544;29;20222;-46
2021/07/20 04:55:38;;;;;;;16.00;14.27;;;22.40;57.40;;;;;;4950734;28;20483;-48
2021/07/20 04:58:04;;;;;;;15.60;13.40;;;22.40;57.40;;;;;;4957603;29;20455;-47
2021/07/20 05:00:31;;;;;;;14.40;12.90;;;22.30;57.50;;;;;;4956921;28;20446;-46
2021/07/20 05:02:59;;;;;;;16.90;13.00;;;22.20;57.70;;;;;;4957420;28;20495;-46
2021/07/20 05:05:27;;;;;;;18.17;13.87;;;22.30;57.90;;;;;;4956255;29;20458;-48
2021/07/20 05:07:54;;;;;;;18.60;15.30;;;22.40;57.70;;;;;;4957522;29;20438;-47
2021/07/20 05:10:20;;;;;;;18.00;15.20;;;22.40;57.60;;;;;;4956637;28;20544;-46
2021/07/20 05:12:47;;;;;;;16.87;13.97;;;22.50;57.60;;;;;;4956965;29;20442;-46
2021/07/20 05:15:19;;;;;;;19.60;13.77;;;22.50;57.50;;;;;;4956158;28;20971;-49
2021/07/20 05:17:45;;;;;;;17.97;14.10;;;22.60;57.50;;;;;;4957042;29;20482;-48
2021/07/20 05:20:13;;;;;;;17.20;14.20;;;22.60;57.30;;;;;;4951590;29;20484;-46
2021/07/20 05:22:40;;;;;;;19.93;14.87;;;22.60;57.20;;;;;;4936584;29;20456;-47
2021/07/20 05:25:07;;;;;;;19.33;13.77;;;22.70;57.40;;;;;;4937556;29;20519;-46
2021/07/20 05:27:38;;;;;;;16.80;13.23;;;22.70;57.40;;;;;;4937540;29;20787;-46
2021/07/20 05:30:08;;;;;;;20.57;14.67;;;22.80;57.40;;;;;;4937810;29;20447;-47
2021/07/20 05:32:40;;;;;;;18.37;14.30;;;22.80;57.30;;;;;;4937244;29;20432;-46
2021/07/20 05:35:09;;;;;;;16.60;14.10;;;22.80;57.30;;;;;;4937208;29;20510;-46
2021/07/20 05:37:37;;;;;;;16.33;14.20;;;22.90;57.20;;;;;;4937105;29;20519;-47
2021/07/20 05:40:04;;;;;;;19.47;14.50;;;22.90;57.10;;;;;;4937760;29;20446;-47
2021/07/20 05:42:32;;;;;;;18.50;14.77;;;22.90;57.00;;;;;;4936943;29;20443;-49
2021/07/20 05:44:58;;;;;;;18.33;13.83;;;23.00;56.90;;;;;;4937388;29;20795;-46
2021/07/20 05:47:26;;;;;;;20.53;14.87;;;23.00;56.90;;;;;;4945769;29;20502;-47
2021/07/20 05:49:52;;;;;;;17.23;14.63;;;23.00;56.80;;;;;;4954972;29;20463;-48
2021/07/20 05:52:18;;;;;;;14.90;13.20;;;23.10;56.90;;;;;;4955994;28;20950;-46
2021/07/20 05:54:46;;;;;;;17.47;14.87;;;23.10;56.80;;;;;;4956060;28;20585;-49
2021/07/20 05:57:13;;;;;;;15.83;13.80;;;23.20;56.70;;;;;;4955616;28;20439;-46
2021/07/20 05:59:40;;;;;;;17.80;13.60;;;23.20;56.50;;;;;;4956271;28;20479;-48
2021/07/20 06:02:10;;;;;;;17.67;13.50;;;23.20;56.60;;;;;;4956051;29;20434;-47
2021/07/20 06:04:37;;;;;;;17.30;13.57;;;23.20;56.50;;;;;;4955998;29;20432;-47
2021/07/20 06:07:04;;;;;;;18.80;14.10;;;23.20;56.30;;;;;;4954825;28;20431;-48
2021/07/20 06:09:31;;;;;;;15.47;13.73;;;23.30;56.30;;;;;;4955846;29;20912;-48
2021/07/20 06:11:58;;;;;;;18.07;14.97;;;23.30;56.70;;;;;;4955492;29;20424;-48
2021/07/20 06:14:24;;;;;;;16.30;13.70;;;23.40;56.20;;;;;;4954857;28;20491;-47
2021/07/20 06:16:50;;;;;;;17.17;14.67;;;23.50;56.30;;;;;;4954766;28;20522;-47
2021/07/20 06:19:16;;;;;;;20.80;13.77;;;23.60;56.00;;;;;;4955666;29;20471;-46
2021/07/20 06:21:43;;;;;;;17.33;12.93;;;23.60;55.90;;;;;;4938535;29;20416;-48
2021/07/20 06:24:11;;;;;;;18.50;14.60;;;23.70;55.60;;;;;;4936696;29;20205;-48
2021/07/20 06:26:38;;;;;;;14.90;12.70;;;23.70;55.70;;;;;;4935846;29;20511;-47
2021/07/20 06:29:08;;;;;;;17.00;13.20;;;23.80;55.70;;;;;;4936825;29;20439;-46
2021/07/20 06:31:39;;;;;;;14.60;13.00;;;23.90;55.40;;;;;;4936061;29;20814;-46
2021/07/20 06:34:05;;;;;;;15.80;13.63;;;24.00;55.70;;;;;;4936664;29;20433;-47
2021/07/20 06:36:33;;;;;;;17.90;12.73;;;24.10;54.90;;;;;;4935718;29;20439;-51
2021/07/20 06:38:58;;;;;;;14.30;12.30;;;24.10;54.50;;;;;;4936421;29;20429;-46
2021/07/20 06:41:24;;;;;;;14.47;12.10;;;24.20;54.50;;;;;;4934500;29;20435;-46
2021/07/20 06:43:51;;;;;;;13.53;11.80;;;24.30;54.40;;;;;;4936664;29;20197;-48
2021/07/20 06:46:20;;;;;;;15.90;12.47;;;24.40;54.40;;;;;;4935762;29;20197;-46
2021/07/20 06:48:46;;;;;;;15.27;12.43;;;24.50;54.20;;;;;;4955255;29;20431;-46
2021/07/20 06:51:12;;;;;;;13.70;12.27;;;24.60;54.30;;;;;;4955037;29;20916;-46
2021/07/20 06:53:38;;;;;;;15.27;13.63;;;24.60;54.00;;;;;;4955272;29;20439;-46
2021/07/20 06:56:06;;;;;;;15.07;12.10;;;24.60;54.00;;;;;;4954175;28;20644;-46
2021/07/20 06:58:33;;;;;;;16.37;12.53;;;24.80;54.00;;;;;;4955472;29;20474;-46
2021/07/20 07:01:01;;;;;;;13.13;11.63;;;24.80;53.90;;;;;;4954501;28;20428;-48
2021/07/20 07:03:43;;;;;;;17.13;11.97;;;25.00;53.70;;;;;;4955181;29;20432;-46
2021/07/20 07:06:10;;;;;;;15.33;12.77;;;25.00;53.30;;;;;;4954448;29;20491;-46
2021/07/20 07:08:37;;;;;;;13.53;11.40;;;25.10;53.20;;;;;;4953332;28;20485;-46
2021/07/20 07:11:03;;;;;;;15.27;11.80;;;25.30;52.70;;;;;;4954560;29;20430;-46
2021/07/20 07:13:29;;;;;;;12.47;10.60;;;25.40;52.90;;;;;;4955038;28;20790;-46
2021/07/20 07:15:56;;;;;;;14.50;10.97;;;25.50;52.90;;;;;;4954012;29;20492;-50
2021/07/20 07:18:23;;;;;;;15.67;10.50;;;25.60;52.90;;;;;;4954073;28;20483;-47
2021/07/20 07:20:50;;;;;;;12.57;11.00;;;25.80;51.80;;;;;;4954040;29;20486;-46
2021/07/20 07:23:19;;;;;;;13.10;10.77;;;25.90;50.60;;;;;;4954872;29;20441;-47
2021/07/20 07:25:52;;;;;;;12.10;10.87;;;25.90;50.90;;;;;;4953751;29;20498;-48
2021/07/20 07:28:20;;;;;;;16.40;11.30;;;25.90;50.40;;;;;;4954697;28;20459;-47
2021/07/20 07:30:50;;;;;;;15.77;11.03;;;26.00;50.00;;;;;;4954094;28;20927;-47
2021/07/20 07:33:17;;;;;;;12.63;11.13;;;25.90;50.00;;;;;;4954617;28;20439;-47
2021/07/20 07:35:42;;;;;;;12.77;10.90;;;25.90;49.90;;;;;;4951998;29;20615;-48
2021/07/20 07:38:09;;;;;;;11.83;10.43;;;26.00;50.00;;;;;;4954429;28;21027;-48
2021/07/20 07:40:35;;;;;;;10.83;9.67;;;26.10;49.70;;;;;;4953873;29;20204;-47
2021/07/20 07:43:04;;;;;;;13.50;10.53;;;26.20;50.20;;;;;;4954527;29;20503;-50
2021/07/20 07:45:31;;;;;;;16.37;10.37;;;26.20;49.00;;;;;;4953419;29;20650;-46
2021/07/20 07:47:58;;;;;;;12.87;9.87;;;26.30;49.00;;;;;;4954290;29;20420;-46
2021/07/20 07:50:24;;;;;;;11.03;9.33;;;26.40;48.90;;;;;;4953726;28;20436;-46
2021/07/20 07:52:51;;;;;;;9.80;8.80;;;26.50;48.50;;;;;;4954274;28;20462;-49
2021/07/20 07:55:20;;;;;;;20.27;10.50;;;26.70;47.50;;;;;;4953173;29;20494;-47
2021/07/20 07:57:45;;;;;;;10.33;9.20;;;26.80;47.50;;;;;;4954333;29;20438;-49
2021/07/20 08:00:12;;;;;;;11.40;9.23;;;26.80;46.60;;;;;;4953298;29;20435;-48
2021/07/20 08:02:40;;;;;;;9.23;8.30;;;26.90;47.10;;;;;;4953185;29;20290;-48
2021/07/20 08:05:07;;;;;;;15.30;9.60;;;27.10;47.40;;;;;;4953822;29;20432;-50
2021/07/20 08:07:34;;;;;;;11.87;10.23;;;27.20;46.00;;;;;;4953669;29;20436;-47
2021/07/20 08:10:01;;;;;;;12.17;9.93;;;27.30;46.30;;;;;;4954090;29;20435;-47
2021/07/20 08:12:29;;;;;;;15.80;9.73;;;27.40;47.60;;;;;;4953566;28;20420;-46
2021/07/20 08:14:55;;;;;;;11.70;8.83;;;27.60;47.00;;;;;;4953190;29;20494;-49
2021/07/20 08:17:23;;;;;;;15.27;9.30;;;27.80;46.40;;;;;;4953278;29;20940;-47
2021/07/20 08:19:51;;;;;;;10.00;8.93;;;27.90;44.80;;;;;;4951628;29;20465;-49
2021/07/20 08:22:18;;;;;;;17.33;8.60;;;28.10;44.90;;;;;;4933905;29;20432;-48
2021/07/20 08:24:55;;;;;;;12.63;9.50;;;28.20;45.50;;;;;;4934425;29;20957;-48
2021/07/20 08:27:24;;;;;;;12.70;9.30;;;28.30;44.50;;;;;;4932591;29;20443;-47
2021/07/20 08:29:55;;;;;;;10.90;9.80;;;28.30;44.50;;;;;;4934706;29;20503;-49
2021/07/20 08:32:22;;;;;;;9.53;8.13;;;28.40;43.70;;;;;;4933408;29;20448;-47
2021/07/20 08:34:55;;;;;;;10.47;9.40;;;28.50;44.30;;;;;;4934201;29;20488;-49
2021/07/20 08:37:22;;;;;;;10.30;7.90;;;28.70;43.70;;;;;;4934036;29;20428;-50
2021/07/20 08:39:49;;;;;;;12.53;8.47;;;28.90;42.50;;;;;;4934613;29;20479;-47
2021/07/20 08:42:27;;;;;;;10.10;9.03;;;29.00;42.10;;;;;;4933679;29;20439;-49
2021/07/20 08:45:04;;;;;;;9.60;8.47;;;29.10;42.80;;;;;;4934296;29;20436;-52
2021/07/20 08:48:07;;;;;;;11.70;8.53;;;29.10;43.00;;;;;;4943420;29;20907;-51
2021/07/20 08:51:04;;;;;;;14.23;8.40;;;29.20;41.60;;;;;;4952940;29;20448;-50
2021/07/20 08:53:42;;;;;;;10.60;8.87;;;29.20;41.00;;;;;;4951806;29;20946;-47
2021/07/20 08:56:09;;;;;;;10.87;8.40;;;29.40;41.60;;;;;;4952418;29;21002;-47
2021/07/20 08:58:43;;;;;;;9.80;8.90;;;29.50;41.60;;;;;;4953511;29;20466;-47
2021/07/20 09:01:18;;;;;;;11.93;9.40;;;29.50;41.00;;;;;;4952689;29;20439;-46
2021/07/20 09:03:58;;;;;;;10.10;8.60;;;29.60;40.90;;;;;;4953843;28;20432;-47
2021/07/20 09:07:09;;;;;;;11.73;8.83;;;29.50;41.40;;;;;;4952786;29;20443;-47
2021/07/20 09:09:45;;;;;;;9.03;8.13;;;29.50;41.10;;;;;;4920566;28;20462;-51
2021/07/20 09:12:20;;;;;;;10.93;8.73;;;29.40;41.30;;;;;;4953072;29;20423;-48
2021/07/20 09:14:56;;;;;;;9.90;8.90;;;29.50;41.70;;;;;;4952981;28;20525;-51
2021/07/20 09:17:27;;;;;;;10.53;9.50;;;29.60;41.00;;;;;;4952716;29;20479;-50
2021/07/20 09:20:06;;;;;;;12.43;9.13;;;29.60;41.00;;;;;;4948272;29;20941;-47
2021/07/20 09:23:01;;;;;;;10.20;9.20;;;29.70;42.90;;;;;;4933572;29;20523;-48
2021/07/20 09:25:35;;;;;;;9.60;8.60;;;29.90;42.10;;;;;;4933245;29;20439;-47
2021/07/20 09:28:14;;;;;;;13.23;9.37;;;30.20;41.40;;;;;;4933976;29;20852;-48
2021/07/20 09:30:49;;;;;;;10.50;9.50;;;30.50;41.20;;;;;;4933586;29;20522;-48
2021/07/20 09:33:24;;;;;;;10.03;8.90;;;30.70;40.60;;;;;;4934255;29;20432;-48
2021/07/20 09:36:02;;;;;;;10.63;9.37;;;30.70;41.50;;;;;;4932968;29;20495;-48
2021/07/20 09:38:56;;;;;;;16.27;10.43;;;31.00;40.80;;;;;;4933996;29;20573;-47
2021/07/20 09:41:48;;;;;;;12.00;10.07;;;31.10;39.00;;;;;;4933425;29;20475;-47
2021/07/20 09:44:37;;;;;;;11.07;9.87;;;31.10;38.40;;;;;;4937389;29;20440;-48
2021/07/20 09:47:22;;;;;;;11.00;9.60;;;31.30;39.90;;;;;;4941106;29;21310;-47
2021/07/20 09:50:05;;;;;;;11.77;9.47;;;31.30;38.00;;;;;;4946140;29;20443;-49
2021/07/20 09:52:52;;;;;;;11.47;10.20;;;31.20;39.20;;;;;;4956089;29;20859;-48
2021/07/20 09:55:46;;;;;;;10.83;9.63;;;31.30;40.00;;;;;;4955360;29;20483;-49
2021/07/20 09:58:44;;;;;;;12.20;11.00;;;31.30;39.10;;;;;;4956559;29;20961;-47
2021/07/20 10:01:18;;;;;;;14.03;11.83;;;31.60;39.70;;;;;;4955997;29;20836;-47
2021/07/20 10:04:10;;;;;;;13.30;11.00;;;31.60;37.00;;;;;;4956358;29;20809;-48
2021/07/20 10:06:38;;;;;;;12.40;10.50;;;31.50;36.90;;;;;;4955589;29;20936;-47
2021/07/20 10:09:20;;;;;;;12.57;11.37;;;31.40;37.80;;;;;;4943751;29;20462;-47
2021/07/20 10:11:54;;;;;;;12.13;10.67;;;31.70;38.80;;;;;;4955440;29;21006;-47
2021/07/20 10:14:43;;;;;;;13.37;11.30;;;31.90;38.80;;;;;;4954422;29;20471;-47
2021/07/20 10:17:26;;;;;;;12.73;11.43;;;32.10;36.70;;;;;;4955053;29;20446;-48
2021/07/20 10:20:16;;;;;;;12.53;11.13;;;32.10;36.00;;;;;;4953506;29;20436;-47
2021/07/20 10:23:05;;;;;;;13.53;11.47;;;31.90;36.50;;;;;;4936998;29;20432;-53
2021/07/20 10:25:40;;;;;;;18.67;11.27;;;31.80;36.50;;;;;;4935697;29;20462;-47
2021/07/20 10:28:25;;;;;;;11.60;10.40;;;32.10;37.30;;;;;;4937016;29;20443;-50
2021/07/20 10:31:07;;;;;;;13.17;11.80;;;32.40;36.80;;;;;;4936440;29;20450;-50
2021/07/20 10:33:45;;;;;;;12.30;10.97;;;32.30;36.40;;;;;;4936687;29;20990;-49
2021/07/20 10:36:27;;;;;;;12.60;11.30;;;32.40;36.00;;;;;;4937273;29;20492;-51
2021/07/20 10:39:08;;;;;;;15.50;11.10;;;32.30;36.40;;;;;;4936058;29;20527;-50
2021/07/20 10:41:44;;;;;;;14.67;11.00;;;32.20;36.50;;;;;;4936227;29;21007;-48
2021/07/20 10:44:45;;;;;;;13.73;11.57;;;32.20;35.40;;;;;;4936098;29;20456;-53
2021/07/20 10:47:14;;;;;;;12.90;11.70;;;32.20;36.40;;;;;;4877026;29;20541;-49
2021/07/20 10:50:23;;;;;;;14.43;11.77;;;32.40;36.00;;;;;;4931944;29;20436;-48
2021/07/20 10:53:01;;;;;;;12.60;11.43;;;32.50;36.90;;;;;;4880501;29;20458;-48
2021/07/20 10:55:36;;;;;;;12.80;10.63;;;32.40;35.80;;;;;;4953583;29;20483;-51
2021/07/20 10:58:11;;;;;;;12.57;11.37;;;32.60;35.30;;;;;;4955180;28;20439;-52
2021/07/20 11:01:00;;;;;;;13.93;11.47;;;32.90;35.10;;;;;;4954782;29;20446;-49
2021/07/20 11:03:34;;;;;;;13.97;12.57;;;33.10;34.80;;;;;;4955464;29;20460;-51
2021/07/20 11:06:02;;;;;;;12.90;11.60;;;33.20;33.80;;;;;;4952704;29;20474;-51
2021/07/20 11:08:31;;;;;;;12.97;11.57;;;33.40;33.40;;;;;;4955516;28;20784;-52
2021/07/20 11:10:59;;;;;;;15.50;12.57;;;33.30;33.00;;;;;;4954484;29;20439;-51
2021/07/20 11:13:33;;;;;;;17.37;12.30;;;33.20;33.50;;;;;;4954932;29;20438;-49
2021/07/20 11:16:03;;;;;;;15.00;11.90;;;33.00;33.30;;;;;;4953687;29;20483;-52
2021/07/20 11:18:33;;;;;;;13.60;12.30;;;33.00;34.40;;;;;;4954987;29;20470;-51
2021/07/20 11:21:01;;;;;;;13.47;12.17;;;33.20;33.80;;;;;;4943224;29;20484;-49
2021/07/20 11:23:30;;;;;;;17.17;12.90;;;33.30;34.20;;;;;;4935847;29;20459;-51
2021/07/20 11:25:57;;;;;;;14.23;12.83;;;33.40;32.50;;;;;;4934650;29;20428;-50
2021/07/20 11:28:23;;;;;;;15.37;12.83;;;33.40;32.60;;;;;;4935819;29;20433;-47
2021/07/20 11:30:52;;;;;;;13.20;11.87;;;33.40;32.40;;;;;;4935303;29;20440;-52
2021/07/20 11:33:22;;;;;;;15.37;11.83;;;33.50;32.50;;;;;;4934002;29;20485;-52
2021/07/20 11:35:53;;;;;;;18.53;12.00;;;33.70;32.40;;;;;;4934513;29;20601;-52
2021/07/20 11:38:24;;;;;;;13.27;12.00;;;33.50;32.80;;;;;;4935296;29;20935;-48
2021/07/20 11:41:09;;;;;;;13.43;12.00;;;33.50;32.90;;;;;;4934854;29;20441;-53
2021/07/20 11:44:10;;;;;;;14.60;13.10;;;33.50;32.60;;;;;;4935307;29;20452;-50
2021/07/20 11:46:59;;;;;;;12.90;11.60;;;33.50;31.80;;;;;;4937279;29;20479;-49
2021/07/20 11:49:47;;;;;;;12.70;11.50;;;33.60;32.70;;;;;;4954640;29;20483;-51
2021/07/20 11:52:18;;;;;;;14.80;13.30;;;33.80;32.50;;;;;;4953793;29;20830;-49
2021/07/20 11:54:55;;;;;;;15.20;13.70;;;33.90;31.80;;;;;;4953832;28;20518;-51
2021/07/20 11:57:48;;;;;;;13.67;12.27;;;34.00;30.80;;;;;;4953512;29;20435;-53
2021/07/20 12:00:29;;;;;;;12.53;11.33;;;34.00;30.60;;;;;;4952235;28;20436;-52
2021/07/20 12:03:26;;;;;;;16.47;12.83;;;34.10;30.40;;;;;;4954286;29;20487;-52
2021/07/20 12:06:30;;;;;;;15.90;13.13;;;34.00;30.50;;;;;;4953022;28;20448;-48
2021/07/20 12:09:18;;;;;;;12.30;11.10;;;33.90;31.90;;;;;;4909169;29;20447;-48
2021/07/20 12:11:49;;;;;;;13.17;11.37;;;34.10;31.60;;;;;;4953447;29;20423;-49
2021/07/20 12:14:15;;;;;;;12.50;11.40;;;34.30;32.20;;;;;;4953414;28;20427;-49
2021/07/20 12:16:47;;;;;;;12.83;10.57;;;34.50;29.90;;;;;;4953531;28;20423;-48
2021/07/20 12:19:23;;;;;;;11.63;10.43;;;34.50;29.80;;;;;;4954093;29;20835;-48
2021/07/20 12:21:50;;;;;;;13.93;10.50;;;34.40;30.70;;;;;;4934915;29;20432;-48
2021/07/20 12:24:16;;;;;;;11.73;10.63;;;34.60;28.90;;;;;;4934606;29;20463;-49
2021/07/20 12:26:42;;;;;;;13.80;11.20;;;34.80;29.10;;;;;;4932681;29;20421;-47
2021/07/20 12:29:09;;;;;;;11.83;10.60;;;34.90;28.90;;;;;;4934741;29;20316;-48
2021/07/20 12:31:36;;;;;;;11.60;10.17;;;34.90;29.20;;;;;;4934091;29;20208;-47
2021/07/20 12:34:02;;;;;;;11.80;10.60;;;34.90;28.90;;;;;;4934314;29;20472;-47
2021/07/20 12:36:29;;;;;;;15.60;10.57;;;34.90;29.20;;;;;;4933992;29;20498;-48
2021/07/20 12:39:13;;;;;;;11.77;10.57;;;35.00;29.80;;;;;;4934696;29;20484;-49
2021/07/20 12:41:42;;;;;;;10.23;9.30;;;35.10;28.40;;;;;;4933646;29;20444;-48
2021/07/20 12:44:08;;;;;;;11.03;9.97;;;34.90;28.40;;;;;;4934143;29;20432;-48
2021/07/20 12:46:36;;;;;;;11.23;10.10;;;35.10;28.70;;;;;;4936098;29;20467;-49
2021/07/20 12:49:03;;;;;;;10.40;9.47;;;35.10;29.00;;;;;;4954144;29;20210;-52
2021/07/20 12:51:29;;;;;;;10.53;9.57;;;35.20;29.10;;;;;;4951681;28;20551;-50